Аэропорт: Пашковский. Краснодар

ICAO: URKK

METAR:
2021-07-28 14:30:00
URKK 281430Z 08006MPS 050V110 9999 FEW/// 30/14 Q1015 R05R/CLRD70 NOSIG RMK QFE758
METAR:
2021-07-28 13:57:00
TAF URKK 281357Z 2815/2915 05003G08MPS CAVOK TEMPO 2815/2818 08007G13MPS TEMPO 2906/2915 08007G13MPS